createdAt,value
2023-03-11T00:00:29.401Z,87.90
2023-03-11T00:02:57.801Z,87.77
2023-03-11T00:05:26.239Z,87.65
2023-03-11T00:07:54.039Z,87.93
2023-03-11T00:10:22.695Z,87.28
2023-03-11T00:12:51.782Z,87.53
2023-03-11T00:15:19.351Z,88.36
2023-03-11T00:17:48.247Z,88.13
2023-03-11T00:20:17.049Z,88.10
2023-03-11T00:22:44.587Z,88.07
2023-03-11T00:25:12.460Z,87.61
2023-03-11T00:27:39.911Z,89.49
2023-03-11T00:30:09.978Z,88.86
2023-03-11T00:32:37.575Z,88.85
2023-03-11T00:35:05.590Z,88.28
2023-03-11T00:37:33.090Z,88.47
2023-03-11T00:40:00.605Z,88.76
2023-03-11T00:42:28.112Z,88.75
2023-03-11T00:44:55.576Z,87.90
2023-03-11T00:47:24.455Z,88.36
2023-03-11T00:49:51.902Z,87.68
2023-03-11T00:52:19.332Z,87.89
2023-03-11T00:54:47.185Z,88.41
2023-03-11T00:57:14.678Z,88.66
2023-03-11T00:59:42.151Z,88.35
2023-03-11T01:02:09.651Z,88.92
2023-03-11T01:04:38.613Z,88.74
2023-03-11T01:07:06.169Z,88.67
2023-03-11T01:09:33.884Z,88.23
2023-03-11T01:12:01.358Z,88.24
2023-03-11T01:14:29.166Z,87.32
2023-03-11T01:16:56.910Z,87.88
2023-03-11T01:19:24.416Z,87.55
2023-03-11T01:21:53.281Z,87.71
2023-03-11T01:24:20.783Z,88.12
2023-03-11T01:26:48.209Z,88.15
2023-03-11T01:29:15.687Z,88.07
2023-03-11T01:31:43.162Z,88.20
2023-03-11T01:34:10.815Z,89.01
2023-03-11T01:36:38.288Z,88.86
2023-03-11T01:39:07.134Z,88.61
2023-03-11T01:41:34.672Z,88.31
2023-03-11T01:44:02.362Z,87.93
2023-03-11T01:46:31.610Z,87.63
2023-03-11T01:48:59.419Z,87.50
2023-03-11T01:51:28.956Z,87.20
2023-03-11T01:53:56.414Z,87.33
2023-03-11T01:56:25.263Z,88.17
2023-03-11T01:58:53.024Z,87.58
2023-03-11T02:01:20.877Z,87.70
2023-03-11T02:03:49.625Z,87.49
2023-03-11T02:06:18.523Z,87.50
2023-03-11T02:08:46.127Z,87.29
2023-03-11T02:11:15.645Z,87.13
2023-03-11T02:13:44.582Z,87.04
2023-03-11T02:16:12.804Z,87.43
2023-03-11T02:18:40.357Z,87.18
2023-03-11T02:21:09.432Z,86.95
2023-03-11T02:23:38.282Z,86.83
2023-03-11T02:26:07.043Z,86.65
2023-03-11T02:28:35.964Z,86.48
2023-03-11T02:31:03.629Z,86.64
2023-03-11T02:33:32.421Z,86.54
2023-03-11T02:35:59.904Z,86.22
2023-03-11T02:38:27.347Z,86.32
2023-03-11T02:40:56.760Z,86.59
2023-03-11T02:43:25.270Z,86.41
2023-03-11T02:45:54.099Z,86.89
2023-03-11T02:48:21.550Z,86.16
2023-03-11T02:50:49.046Z,86.94
2023-03-11T02:53:16.727Z,87.05
2023-03-11T02:55:44.243Z,87.05
2023-03-11T02:58:11.695Z,86.74
2023-03-11T03:00:39.477Z,86.90
2023-03-11T03:03:08.760Z,86.83
2023-03-11T03:05:36.257Z,86.83
2023-03-11T03:08:03.828Z,86.74
2023-03-11T03:10:31.613Z,86.58
2023-03-11T03:12:59.071Z,86.78
2023-03-11T03:15:26.656Z,86.76
2023-03-11T03:17:54.143Z,86.63
2023-03-11T03:20:23.604Z,87.01
2023-03-11T03:22:51.401Z,86.83
2023-03-11T03:25:19.020Z,86.54
2023-03-11T03:27:46.563Z,86.62
2023-03-11T03:30:14.252Z,86.25
2023-03-11T03:32:42.092Z,85.78
2023-03-11T03:35:10.153Z,86.06
2023-03-11T03:37:39.384Z,86.03
2023-03-11T03:40:08.255Z,86.37
2023-03-11T03:42:36.395Z,86.14
2023-03-11T03:45:04.336Z,86.03
2023-03-11T03:47:32.667Z,86.14
2023-03-11T03:50:00.109Z,86.07
2023-03-11T03:52:27.636Z,85.88
2023-03-11T03:54:56.461Z,85.88
2023-03-11T03:57:23.983Z,85.94
2023-03-11T03:59:51.543Z,85.75
2023-03-11T04:02:19.076Z,85.94
2023-03-11T04:04:46.667Z,85.73
2023-03-11T04:07:14.436Z,85.48
2023-03-11T04:09:41.961Z,85.97
2023-03-11T04:12:10.867Z,85.70
2023-03-11T04:14:38.325Z,85.66
2023-03-11T04:17:05.929Z,85.41
2023-03-11T04:19:33.433Z,85.51
2023-03-11T04:22:00.929Z,85.62
2023-03-11T04:24:28.443Z,85.77
2023-03-11T04:26:55.898Z,85.80
2023-03-11T04:31:52.505Z,85.60
2023-03-11T04:34:19.989Z,85.41
2023-03-11T04:36:47.546Z,85.58
2023-03-11T04:39:15.903Z,85.60
2023-03-11T04:41:43.474Z,85.60
2023-03-11T04:44:10.971Z,85.79
2023-03-11T04:46:39.809Z,85.85
2023-03-11T04:49:07.348Z,85.58
2023-03-11T04:51:34.862Z,85.77
2023-03-11T04:54:02.425Z,86.10
2023-03-11T04:56:29.861Z,85.92
2023-03-11T04:58:57.411Z,86.07
2023-03-11T05:01:24.989Z,86.25
2023-03-11T05:03:53.964Z,86.14
2023-03-11T05:06:21.532Z,86.16
2023-03-11T05:08:48.993Z,86.05
2023-03-11T05:11:16.514Z,86.08
2023-03-11T05:13:43.987Z,86.13
2023-03-11T05:16:11.584Z,86.20
2023-03-11T05:18:39.127Z,86.09
2023-03-11T05:21:08.127Z,86.24
2023-03-11T05:23:35.642Z,86.28
2023-03-11T05:26:03.202Z,86.16
2023-03-11T05:28:30.658Z,86.29
2023-03-11T05:30:58.223Z,86.30
2023-03-11T05:33:25.784Z,86.29
2023-03-11T05:35:53.419Z,86.30
2023-03-11T05:38:22.334Z,86.41
2023-03-11T05:40:49.798Z,86.10
2023-03-11T05:43:17.245Z,86.03
2023-03-11T05:45:44.668Z,86.02
2023-03-11T05:48:12.153Z,86.08
2023-03-11T05:50:39.655Z,86.11
2023-03-11T05:53:07.179Z,85.84
2023-03-11T05:55:36.089Z,85.99
2023-03-11T05:58:03.621Z,85.86
2023-03-11T06:00:31.097Z,86.03
2023-03-11T06:02:58.643Z,86.06
2023-03-11T06:05:26.266Z,86.11
2023-03-11T06:07:53.860Z,86.01
2023-03-11T06:10:21.404Z,85.85
2023-03-11T06:12:50.490Z,86.02
2023-03-11T06:15:18.093Z,85.99
2023-03-11T06:17:45.767Z,85.81
2023-03-11T06:20:13.495Z,85.90
2023-03-11T06:22:41.005Z,85.75
2023-03-11T06:25:09.042Z,86.02
2023-03-11T06:27:36.655Z,85.91
2023-03-11T06:30:06.103Z,85.75
2023-03-11T06:32:34.957Z,85.90
2023-03-11T06:35:02.450Z,86.08
2023-03-11T06:37:29.985Z,86.00
2023-03-11T06:39:57.510Z,86.03
2023-03-11T06:42:25.043Z,86.16
2023-03-11T06:44:52.545Z,86.26
2023-03-11T06:47:21.391Z,86.26
2023-03-11T06:49:49.013Z,85.89
2023-03-11T06:52:16.504Z,85.88
2023-03-11T06:54:44.081Z,86.05
2023-03-11T06:57:11.683Z,85.70
2023-03-11T06:59:39.196Z,85.74
2023-03-11T07:02:06.952Z,85.90
2023-03-11T07:04:35.808Z,85.87
2023-03-11T07:07:03.339Z,85.64
2023-03-11T07:09:30.849Z,85.83
2023-03-11T07:11:58.384Z,85.67
2023-03-11T07:14:25.902Z,85.59
2023-03-11T07:16:53.446Z,85.30
2023-03-11T07:19:21.208Z,85.45
2023-03-11T07:21:50.067Z,85.15
2023-03-11T07:24:17.846Z,85.64
2023-03-11T07:26:45.388Z,85.17
2023-03-11T07:29:12.887Z,85.13
2023-03-11T07:31:40.507Z,85.16
2023-03-11T07:34:11.180Z,85.03
2023-03-11T07:36:40.131Z,84.75
2023-03-11T07:39:08.995Z,84.92
2023-03-11T07:41:36.555Z,85.00
2023-03-11T07:44:04.578Z,85.16
2023-03-11T07:46:32.302Z,84.75
2023-03-11T07:48:59.997Z,84.75
2023-03-11T07:51:28.099Z,84.64
2023-03-11T07:53:56.109Z,84.96
2023-03-11T07:56:25.386Z,84.52
2023-03-11T07:58:52.992Z,84.54
2023-03-11T08:01:23.253Z,84.48
2023-03-11T08:03:52.965Z,84.12
2023-03-11T08:06:21.310Z,83.66
2023-03-11T08:08:49.010Z,83.93
2023-03-11T08:11:16.910Z,84.06
2023-03-11T08:13:46.380Z,83.97
2023-03-11T08:16:14.488Z,83.93
2023-03-11T08:18:42.429Z,83.45
2023-03-11T08:21:11.108Z,83.65
2023-03-11T08:23:38.599Z,83.88
2023-03-11T08:26:06.484Z,83.71
2023-03-11T08:28:34.178Z,83.87
2023-03-11T08:31:03.034Z,83.88
2023-03-11T08:33:30.587Z,83.94
2023-03-11T08:35:58.151Z,83.22
2023-03-11T08:38:25.720Z,83.07
2023-03-11T08:40:53.358Z,82.65
2023-03-11T08:43:20.952Z,82.82
2023-03-11T08:45:48.443Z,82.56
2023-03-11T08:48:17.289Z,82.62
2023-03-11T08:50:53.728Z,82.57
2023-03-11T08:53:22.311Z,82.46
2023-03-11T08:55:50.414Z,82.73
2023-03-11T08:58:17.937Z,82.25
2023-03-11T09:00:45.542Z,81.73
2023-03-11T09:03:13.432Z,82.18
2023-03-11T09:05:42.358Z,82.30
2023-03-11T09:08:09.850Z,82.68
2023-03-11T09:10:37.299Z,82.32
2023-03-11T09:13:04.776Z,82.06
2023-03-11T09:15:32.262Z,81.99
2023-03-11T09:18:00.279Z,81.11
2023-03-11T09:20:27.753Z,81.11
2023-03-11T09:22:56.713Z,81.23
2023-03-11T09:25:24.216Z,81.04
2023-03-11T09:27:51.764Z,80.97
2023-03-11T09:30:19.502Z,81.48
2023-03-11T09:32:47.058Z,81.42
2023-03-11T09:35:14.631Z,81.40
2023-03-11T09:37:42.130Z,81.01
2023-03-11T09:40:12.231Z,80.83
2023-03-11T09:42:40.254Z,80.43
2023-03-11T09:45:09.503Z,80.03
2023-03-11T09:47:40.907Z,79.89
2023-03-11T09:50:23.328Z,79.59
2023-03-11T09:52:55.856Z,79.16
2023-03-11T09:55:31.166Z,79.59
2023-03-11T09:57:58.935Z,79.88
2023-03-11T10:00:26.418Z,79.41
2023-03-11T10:02:54.001Z,79.37
2023-03-11T10:05:21.931Z,78.83
2023-03-11T10:07:51.471Z,78.40
2023-03-11T10:10:19.082Z,78.22
2023-03-11T10:12:50.068Z,77.95
2023-03-11T10:15:19.039Z,78.51
2023-03-11T10:18:07.579Z,78.59
2023-03-11T10:20:37.007Z,78.81
2023-03-11T10:23:08.485Z,78.66
2023-03-11T10:25:38.999Z,79.21
2023-03-11T10:28:09.909Z,79.67
2023-03-11T10:30:37.801Z,79.77
2023-03-11T10:33:07.178Z,77.99
2023-03-11T10:35:35.684Z,77.70
2023-03-11T10:38:04.858Z,76.90
2023-03-11T10:40:32.932Z,77.02
2023-03-11T10:43:01.128Z,76.87
2023-03-11T10:45:30.316Z,76.32
2023-03-11T10:47:58.283Z,76.41
2023-03-11T10:50:25.772Z,76.68
2023-03-11T10:53:06.456Z,76.51
2023-03-11T10:55:34.000Z,76.56
2023-03-11T10:58:08.261Z,76.90
2023-03-11T11:00:37.132Z,76.84
2023-03-11T11:03:06.640Z,77.06
2023-03-11T11:05:34.336Z,76.44
2023-03-11T11:08:06.297Z,76.42
2023-03-11T11:10:34.169Z,76.56
2023-03-11T11:13:02.650Z,77.49
2023-03-11T11:15:30.891Z,78.57
2023-03-11T11:18:00.612Z,78.83
2023-03-11T11:20:28.471Z,78.20
2023-03-11T11:22:56.350Z,78.31
2023-03-11T11:25:31.461Z,78.84
2023-03-11T11:27:59.847Z,76.91
2023-03-11T11:30:28.014Z,76.15
2023-03-11T11:32:55.787Z,76.94
2023-03-11T11:35:25.424Z,75.99
2023-03-11T11:37:53.522Z,76.55
2023-03-11T11:40:30.519Z,76.23
2023-03-11T11:42:58.754Z,77.19
2023-03-11T11:45:28.857Z,77.85
2023-03-11T11:47:56.845Z,76.88
2023-03-11T11:50:27.879Z,75.64
2023-03-11T11:52:56.648Z,74.29
2023-03-11T11:55:25.465Z,75.76
2023-03-11T11:57:52.984Z,72.95
2023-03-11T12:00:21.745Z,75.70
2023-03-11T12:02:56.544Z,77.26
2023-03-11T12:05:24.944Z,77.08
2023-03-11T12:08:00.115Z,75.97
2023-03-11T12:10:29.181Z,74.15
2023-03-11T12:13:14.945Z,74.61
2023-03-11T12:15:43.289Z,74.99
2023-03-11T12:18:12.217Z,75.27
2023-03-11T12:20:40.989Z,74.88
2023-03-11T12:23:20.097Z,76.96
2023-03-11T12:25:54.548Z,77.50
2023-03-11T12:28:23.296Z,76.99
2023-03-11T12:30:52.633Z,74.12
2023-03-11T12:33:20.884Z,75.22
2023-03-11T12:35:49.383Z,76.22
2023-03-11T12:38:17.870Z,74.39
2023-03-11T12:40:51.039Z,73.89
2023-03-11T12:43:37.186Z,73.47
2023-03-11T12:46:05.039Z,73.75
2023-03-11T12:48:35.995Z,71.07
2023-03-11T12:51:03.586Z,71.23
2023-03-11T12:53:43.595Z,72.24
2023-03-11T12:56:15.207Z,72.57
2023-03-11T12:58:48.588Z,71.47
2023-03-11T13:01:26.988Z,71.56
2023-03-11T13:03:59.044Z,74.05
2023-03-11T13:06:50.663Z,75.27
2023-03-11T13:09:18.271Z,74.80
2023-03-11T13:11:48.099Z,75.05
2023-03-11T13:14:20.876Z,74.88
2023-03-11T13:16:48.432Z,75.58
2023-03-11T13:19:35.383Z,75.60
2023-03-11T13:22:03.254Z,72.17
2023-03-11T13:24:51.083Z,69.62
2023-03-11T13:27:27.635Z,70.18
2023-03-11T13:29:57.259Z,71.24
2023-03-11T13:32:35.666Z,71.09
2023-03-11T13:35:06.654Z,69.32
2023-03-11T13:37:35.987Z,71.09
2023-03-11T13:40:13.972Z,71.98
2023-03-11T13:42:45.681Z,71.18
2023-03-11T13:45:25.416Z,67.44
2023-03-11T13:47:52.916Z,69.82
2023-03-11T13:50:21.804Z,69.76
2023-03-11T13:52:49.551Z,70.98
2023-03-11T13:55:18.719Z,68.87
2023-03-11T13:57:51.809Z,73.36
2023-03-11T14:00:24.029Z,72.78
2023-03-11T14:02:54.171Z,73.62
2023-03-11T14:05:23.646Z,74.51
2023-03-11T14:07:51.191Z,72.86
2023-03-11T14:10:27.345Z,71.22
2023-03-11T14:13:07.101Z,71.47
2023-03-11T14:15:38.591Z,72.24
2023-03-11T14:18:20.836Z,72.07
2023-03-11T14:20:48.563Z,72.94
2023-03-11T14:23:18.130Z,72.32
2023-03-11T14:25:45.624Z,73.11
2023-03-11T14:28:18.724Z,75.05
2023-03-11T14:30:55.856Z,72.63
2023-03-11T14:33:23.594Z,73.24
2023-03-11T14:35:52.958Z,73.34
2023-03-11T14:38:21.435Z,73.65
2023-03-11T14:40:51.511Z,74.76
2023-03-11T14:43:20.888Z,74.49
2023-03-11T14:45:48.447Z,72.23
2023-03-11T14:48:16.571Z,66.80
2023-03-11T14:50:44.433Z,70.22
2023-03-11T14:53:14.951Z,68.17
2023-03-11T14:55:43.390Z,69.45
2023-03-11T14:58:12.421Z,70.53
2023-03-11T15:00:41.638Z,72.04
2023-03-11T15:03:14.433Z,72.01
2023-03-11T15:05:43.691Z,67.76
2023-03-11T15:08:11.162Z,68.96
2023-03-11T15:10:38.661Z,65.86
2023-03-11T15:13:08.315Z,67.06
2023-03-11T15:15:35.829Z,62.54
2023-03-11T15:18:05.441Z,67.96
2023-03-11T15:20:33.729Z,73.27
2023-03-11T15:23:02.101Z,64.95
2023-03-11T15:25:30.604Z,71.63
2023-03-11T15:27:58.092Z,71.86
2023-03-11T15:30:26.659Z,68.45
2023-03-11T15:32:54.316Z,69.60
2023-03-11T15:35:24.081Z,70.88
2023-03-11T15:37:52.293Z,70.61
2023-03-11T15:40:30.048Z,71.37
2023-03-11T15:43:17.354Z,68.01
2023-03-11T15:45:44.979Z,69.93
2023-03-11T15:48:12.908Z,71.21
2023-03-11T15:50:53.310Z,65.44
2023-03-11T15:53:21.785Z,67.46
2023-03-11T15:55:49.350Z,68.79
2023-03-11T15:58:17.478Z,69.75
2023-03-11T16:00:46.928Z,70.69
2023-03-11T16:03:14.465Z,71.13
2023-03-11T16:05:41.970Z,70.41
2023-03-11T16:08:10.896Z,71.25
2023-03-11T16:10:38.588Z,72.20
2023-03-11T16:13:06.231Z,70.37
2023-03-11T16:15:35.330Z,70.15
2023-03-11T16:18:03.442Z,70.14
2023-03-11T16:20:32.112Z,72.21
2023-03-11T16:22:59.765Z,71.73
2023-03-11T16:25:29.302Z,69.63
2023-03-11T16:27:57.028Z,70.42
2023-03-11T16:30:24.878Z,73.19
2023-03-11T16:32:52.531Z,72.10
2023-03-11T16:35:20.143Z,71.65
2023-03-11T16:37:47.671Z,72.05
2023-03-11T16:40:15.822Z,71.95
2023-03-11T16:42:44.852Z,72.58
2023-03-11T16:45:12.557Z,73.58
2023-03-11T16:47:40.063Z,72.50
2023-03-11T16:50:08.179Z,73.64
2023-03-11T16:52:37.354Z,72.63
2023-03-11T16:55:05.282Z,73.15
2023-03-11T16:57:32.850Z,73.50
2023-03-11T17:00:01.885Z,73.70
2023-03-11T17:02:29.369Z,73.40
2023-03-11T17:04:57.046Z,73.47
2023-03-11T17:07:24.930Z,73.23
2023-03-11T17:09:52.443Z,73.30
2023-03-11T17:12:19.911Z,74.11
2023-03-11T17:14:47.532Z,74.15
2023-03-11T17:17:16.415Z,74.11
2023-03-11T17:19:44.446Z,72.18
2023-03-11T17:22:11.996Z,73.49
2023-03-11T17:24:39.612Z,74.44
2023-03-11T17:27:07.168Z,74.44
2023-03-11T17:29:34.868Z,74.35
2023-03-11T17:32:02.478Z,74.32
2023-03-11T17:34:31.368Z,74.56
2023-03-11T17:36:58.919Z,74.74
2023-03-11T17:39:26.549Z,75.26
2023-03-11T17:41:54.083Z,75.11
2023-03-11T17:44:21.552Z,75.13
2023-03-11T17:46:49.118Z,75.98
2023-03-11T17:49:16.782Z,76.10
2023-03-11T17:51:45.695Z,76.52
2023-03-11T17:54:13.223Z,76.50
2023-03-11T17:56:40.728Z,76.72
2023-03-11T17:59:08.203Z,76.83
2023-03-11T18:01:35.757Z,77.06
2023-03-11T18:04:03.357Z,77.17
2023-03-11T18:06:30.946Z,77.20
2023-03-11T18:08:59.938Z,77.43
2023-03-11T18:11:28.112Z,77.59
2023-03-11T18:13:55.614Z,77.84
2023-03-11T18:16:23.768Z,78.05
2023-03-11T18:18:51.274Z,78.53
2023-03-11T18:21:19.409Z,78.31
2023-03-11T18:23:47.062Z,78.62
2023-03-11T18:26:16.535Z,78.57
2023-03-11T18:28:44.041Z,78.77
2023-03-11T18:31:12.166Z,79.03
2023-03-11T18:33:39.931Z,79.10
2023-03-11T18:36:14.766Z,79.20
2023-03-11T18:38:42.279Z,79.48
2023-03-11T18:41:09.957Z,79.54
2023-03-11T18:43:38.822Z,79.56
2023-03-11T18:46:07.911Z,79.61
2023-03-11T18:48:35.453Z,79.80
2023-03-11T18:51:03.060Z,79.87
2023-03-11T18:53:30.560Z,79.86
2023-03-11T18:56:01.116Z,80.16
2023-03-11T18:58:28.845Z,80.15
2023-03-11T19:01:03.688Z,80.28
2023-03-11T19:03:31.315Z,80.45
2023-03-11T19:05:59.568Z,80.49
2023-03-11T19:08:27.618Z,80.42
2023-03-11T19:10:55.075Z,80.59
2023-03-11T19:13:22.564Z,80.83
2023-03-11T19:15:50.058Z,80.79
2023-03-11T19:18:18.978Z,80.89
2023-03-11T19:20:46.442Z,80.99
2023-03-11T19:23:13.893Z,81.00
2023-03-11T19:25:50.619Z,81.21
2023-03-11T19:28:24.586Z,81.27
2023-03-11T19:30:52.623Z,81.24
2023-03-11T19:33:22.201Z,81.40
2023-03-11T19:35:52.431Z,81.47
2023-03-11T19:38:19.952Z,81.50
2023-03-11T19:40:47.632Z,81.35
2023-03-11T19:43:15.178Z,81.42
2023-03-11T19:45:42.668Z,81.68
2023-03-11T19:48:13.074Z,81.76
2023-03-11T19:50:42.140Z,81.64
2023-03-11T19:53:09.651Z,81.80
2023-03-11T19:55:37.126Z,81.96
2023-03-11T19:58:04.570Z,81.99
2023-03-11T20:00:32.121Z,81.85
2023-03-11T20:03:02.206Z,81.91
2023-03-11T20:05:29.686Z,81.98
2023-03-11T20:07:58.584Z,82.01
2023-03-11T20:10:26.100Z,81.98
2023-03-11T20:13:02.236Z,82.06
2023-03-11T20:15:30.375Z,81.95
2023-03-11T20:17:57.914Z,81.58
2023-03-11T20:20:25.579Z,81.72
2023-03-11T20:22:53.150Z,81.53
2023-03-11T20:25:22.118Z,81.54
2023-03-11T20:27:49.720Z,81.50
2023-03-11T20:30:20.113Z,81.46
2023-03-11T20:32:47.809Z,81.46
2023-03-11T20:35:15.584Z,81.56
2023-03-11T20:37:43.189Z,81.35
2023-03-11T20:40:13.053Z,81.50
2023-03-11T20:42:43.043Z,81.64
2023-03-11T20:45:11.124Z,81.69
2023-03-11T20:47:38.684Z,81.71
2023-03-11T20:50:06.591Z,81.72
2023-03-11T20:52:35.810Z,81.93
2023-03-11T20:55:03.366Z,81.87
2023-03-11T20:57:30.930Z,81.76
2023-03-11T20:59:59.793Z,81.91
2023-03-11T21:02:30.636Z,82.07
2023-03-11T21:04:58.345Z,82.13
2023-03-11T21:07:26.034Z,82.02
2023-03-11T21:09:54.900Z,81.99
2023-03-11T21:12:22.628Z,82.16
2023-03-11T21:14:50.335Z,82.27
2023-03-11T21:17:19.378Z,82.36
2023-03-11T21:19:47.103Z,82.17
2023-03-11T21:22:14.693Z,82.18
2023-03-11T21:24:42.326Z,82.19
2023-03-11T21:27:09.899Z,82.26
2023-03-11T21:29:37.680Z,82.17
2023-03-11T21:32:05.555Z,82.29
2023-03-11T21:34:34.495Z,82.51
2023-03-11T21:37:02.005Z,82.37
2023-03-11T21:39:29.525Z,82.55
2023-03-11T21:41:57.236Z,82.61
2023-03-11T21:44:24.753Z,82.53
2023-03-11T21:46:52.510Z,82.61
2023-03-11T21:49:20.138Z,82.60
2023-03-11T21:51:49.045Z,82.65
2023-03-11T21:54:16.968Z,82.83
2023-03-11T21:56:44.636Z,82.66
2023-03-11T21:59:12.183Z,82.88
2023-03-11T22:01:39.844Z,82.92
2023-03-11T22:04:07.582Z,82.97
2023-03-11T22:06:35.142Z,83.00
2023-03-11T22:09:04.271Z,82.99
2023-03-11T22:11:31.890Z,83.11
2023-03-11T22:14:01.016Z,82.96
2023-03-11T22:16:28.650Z,82.91
2023-03-11T22:18:56.326Z,82.89
2023-03-11T22:21:23.948Z,83.10
2023-03-11T22:23:51.486Z,82.94
2023-03-11T22:26:20.334Z,83.03
2023-03-11T22:28:47.926Z,83.14
2023-03-11T22:31:16.771Z,83.15
2023-03-11T22:33:44.319Z,83.13
2023-03-11T22:36:11.957Z,82.98
2023-03-11T22:38:42.042Z,83.16
2023-03-11T22:41:09.717Z,83.06
2023-03-11T22:43:38.998Z,83.09
2023-03-11T22:46:06.782Z,83.24
2023-03-11T22:48:34.478Z,83.19
2023-03-11T22:51:02.050Z,83.16
2023-03-11T22:53:29.645Z,83.11
2023-03-11T22:55:57.179Z,82.99
2023-03-11T22:58:24.635Z,82.91
2023-03-11T23:00:53.596Z,83.13
2023-03-11T23:03:21.241Z,82.99
2023-03-11T23:05:48.825Z,82.85
2023-03-11T23:08:16.805Z,82.88
2023-03-11T23:10:44.857Z,83.02
2023-03-11T23:13:12.646Z,82.85
2023-03-11T23:15:40.725Z,82.89
2023-03-11T23:18:09.788Z,82.82
2023-03-11T23:20:37.593Z,83.01
2023-03-11T23:23:05.280Z,82.96
2023-03-11T23:25:32.867Z,82.83
2023-03-11T23:28:01.770Z,82.91
2023-03-11T23:30:29.265Z,82.98
2023-03-11T23:32:57.288Z,82.82
2023-03-11T23:35:26.161Z,82.95
2023-03-11T23:37:53.710Z,82.87
2023-03-11T23:40:21.303Z,82.87
2023-03-11T23:42:48.819Z,82.71
2023-03-11T23:45:16.337Z,82.86
2023-03-11T23:47:43.834Z,82.77
2023-03-11T23:50:11.782Z,82.96
2023-03-11T23:52:40.793Z,82.84
2023-03-11T23:55:08.808Z,82.97
2023-03-11T23:57:36.322Z,82.80
